Terminal Aerodrome Forecast
Issued by NWS

Home | Current Version | Previous Version | Text Only | Print | Product List | Glossary Off
Versions: 1 2 3 4 5 6 7 8 9 10 11 12 13 14 15 16 17 18 19 20

299
FTUS43 KGRB 241532 AAA
TAFAUW
TAF AMD
KAUW 241532Z 2416/2512 04006KT 4SM -RA OVC020
     FM242200 05006KT 5SM -RA OVC009
     FM250100 05007KT 6SM -RA OVC012
     FM250800 05009G14KT P6SM OVC012
     FM251100 06010G15KT P6SM OVC009=

USA.gov is the U.S. government's official web portal to all federal, state and local government web resources and services.